createdAt,value
2022-11-15T00:03:07.060Z,48.51
2022-11-15T00:08:12.949Z,49.67
2022-11-15T00:13:15.825Z,48.38
2022-11-15T00:18:19.750Z,46.82
2022-11-15T00:23:25.022Z,47.81
2022-11-15T00:28:28.844Z,48.04
2022-11-15T00:33:33.054Z,46.95
2022-11-15T00:38:39.935Z,48.67
2022-11-15T00:43:43.547Z,48.39
2022-11-15T00:48:47.081Z,49.51
2022-11-15T00:53:52.252Z,50.32
2022-11-15T00:58:55.956Z,51.02
2022-11-15T01:04:01.460Z,50.31
2022-11-15T01:09:06.888Z,50.98
2022-11-15T01:14:10.446Z,50.92
2022-11-15T01:19:13.998Z,50.48
2022-11-15T01:24:19.387Z,50.53
2022-11-15T01:29:23.031Z,50.54
2022-11-15T01:34:26.565Z,50.96
2022-11-15T01:39:31.775Z,51.33
2022-11-15T01:44:44.357Z,52.31
2022-11-15T01:49:54.658Z,53.05
2022-11-15T01:55:05.166Z,54.42
2022-11-15T02:00:10.300Z,54.53
2022-11-15T02:05:13.892Z,54.52
2022-11-15T02:10:21.142Z,55.48
2022-11-15T02:15:29.663Z,56.21
2022-11-15T02:20:58.808Z,57.34
2022-11-15T02:26:27.906Z,56.21
2022-11-15T02:31:41.552Z,55.42
2022-11-15T02:36:54.294Z,55.30
2022-11-15T02:42:03.732Z,56.79
2022-11-15T02:47:13.413Z,57.89
2022-11-15T02:52:17.991Z,57.94
2022-11-15T02:57:28.647Z,58.65
2022-11-15T03:02:51.837Z,59.83
2022-11-15T03:08:02.845Z,59.53
2022-11-15T03:13:18.854Z,60.27
2022-11-15T03:18:29.899Z,60.96
2022-11-15T03:23:35.684Z,60.19
2022-11-15T03:28:42.832Z,61.02
2022-11-15T03:33:48.104Z,61.27
2022-11-15T03:38:58.531Z,61.18
2022-11-15T03:44:06.973Z,61.42
2022-11-15T03:49:19.216Z,62.61
2022-11-15T03:54:22.831Z,62.63
2022-11-15T03:59:26.500Z,63.29
2022-11-15T04:04:31.797Z,63.73
2022-11-15T04:09:35.336Z,63.24
2022-11-15T04:14:38.849Z,63.37
2022-11-15T04:19:44.091Z,63.37
2022-11-15T04:24:47.629Z,63.41
2022-11-15T04:29:51.147Z,63.11
2022-11-15T04:34:56.310Z,63.68
2022-11-15T04:39:59.813Z,64.05
2022-11-15T04:45:03.360Z,63.90
2022-11-15T04:50:10.825Z,65.16
2022-11-15T04:55:14.439Z,65.45
2022-11-15T05:00:19.155Z,65.10
2022-11-15T05:05:25.194Z,65.71
2022-11-15T05:10:28.749Z,65.61
2022-11-15T05:15:32.295Z,66.02
2022-11-15T05:20:37.504Z,66.24
2022-11-15T05:25:41.107Z,66.43
2022-11-15T05:30:44.699Z,66.17
2022-11-15T05:35:57.731Z,67.66
2022-11-15T05:41:02.698Z,66.82
2022-11-15T05:46:07.239Z,67.20
2022-11-15T05:51:14.550Z,66.63
2022-11-15T05:56:18.277Z,66.98
2022-11-15T06:01:21.827Z,66.90
2022-11-15T06:06:29.941Z,68.40
2022-11-15T06:11:33.482Z,67.33
2022-11-15T06:16:37.069Z,67.37
2022-11-15T06:21:42.272Z,67.86
2022-11-15T06:26:45.830Z,67.30
2022-11-15T06:31:49.382Z,67.84
2022-11-15T06:36:54.554Z,68.29
2022-11-15T06:41:58.079Z,67.91
2022-11-15T06:47:02.315Z,68.10
2022-11-15T06:52:07.616Z,68.29
2022-11-15T06:57:11.150Z,68.31
2022-11-15T07:02:15.353Z,68.81
2022-11-15T07:07:20.611Z,69.32
2022-11-15T07:12:24.183Z,68.76
2022-11-15T07:17:28.442Z,69.24
2022-11-15T07:22:33.646Z,69.57
2022-11-15T07:27:37.903Z,69.58
2022-11-15T07:32:41.792Z,69.61
2022-11-15T07:37:54.197Z,70.15
2022-11-15T07:43:02.210Z,70.02
2022-11-15T07:48:06.243Z,70.08
2022-11-15T07:53:12.111Z,70.46
2022-11-15T07:58:15.661Z,70.44
2022-11-15T08:03:19.423Z,70.56
2022-11-15T08:08:24.661Z,70.15
2022-11-15T08:13:28.301Z,70.28
2022-11-15T08:18:31.902Z,70.12
2022-11-15T08:23:37.809Z,71.02
2022-11-15T08:28:41.482Z,70.98
2022-11-15T08:33:45.896Z,71.68
2022-11-15T08:38:51.072Z,71.42
2022-11-15T08:43:54.623Z,70.89
2022-11-15T08:48:58.321Z,70.97
2022-11-15T08:54:03.585Z,71.54
2022-11-15T08:59:07.139Z,71.25
2022-11-15T09:04:10.662Z,71.08
2022-11-15T09:09:15.854Z,71.40
2022-11-15T09:14:19.446Z,71.13
2022-11-15T09:19:23.073Z,71.58
2022-11-15T09:24:28.269Z,71.91
2022-11-15T09:29:31.828Z,71.68
2022-11-15T09:34:35.483Z,72.09
2022-11-15T09:39:40.684Z,71.93
2022-11-15T09:44:54.473Z,72.78
2022-11-15T09:50:02.879Z,72.75
2022-11-15T09:55:12.215Z,73.47
2022-11-15T10:05:47.869Z,73.02
2022-11-15T10:11:22.694Z,73.16
2022-11-15T10:16:51.488Z,72.64
2022-11-15T10:22:06.695Z,72.79
2022-11-15T10:27:15.103Z,72.97
2022-11-15T10:32:21.987Z,73.07
2022-11-15T10:37:30.606Z,72.94
2022-11-15T10:42:35.791Z,72.73
2022-11-15T10:47:39.864Z,73.20
2022-11-15T10:52:48.647Z,73.90
2022-11-15T10:57:55.771Z,73.60
2022-11-15T11:03:01.674Z,73.10
2022-11-15T11:08:23.561Z,73.65
2022-11-15T11:13:31.410Z,73.67
2022-11-15T11:18:40.415Z,74.17
2022-11-15T11:23:53.896Z,73.49
2022-11-15T11:29:08.166Z,73.37
2022-11-15T11:34:18.001Z,73.86
2022-11-15T11:39:30.206Z,74.63
2022-11-15T11:44:45.581Z,75.32
2022-11-15T11:49:54.639Z,74.42
2022-11-15T11:55:06.589Z,75.14
2022-11-15T12:00:21.157Z,75.99
2022-11-15T12:05:32.210Z,75.01
2022-11-15T12:10:37.757Z,75.01
2022-11-15T12:15:48.204Z,74.64
2022-11-15T12:20:57.183Z,74.89
2022-11-15T12:26:05.861Z,75.01
2022-11-15T12:31:18.733Z,75.37
2022-11-15T12:36:44.238Z,76.01
2022-11-15T12:42:22.220Z,73.78
2022-11-15T12:47:28.716Z,74.71
2022-11-15T12:52:31.495Z,75.69
2022-11-15T12:57:40.568Z,76.37
2022-11-15T13:02:46.365Z,74.71
2022-11-15T13:08:00.122Z,75.63
2022-11-15T13:13:05.351Z,75.24
2022-11-15T13:18:34.156Z,74.98
2022-11-15T13:23:38.100Z,75.10
2022-11-15T13:28:46.041Z,74.36
2022-11-15T13:33:51.849Z,75.47
2022-11-15T13:39:00.665Z,75.84
2022-11-15T13:44:05.889Z,74.80
2022-11-15T13:49:12.392Z,75.82
2022-11-15T13:54:19.513Z,76.00
2022-11-15T13:59:27.286Z,74.72
2022-11-15T14:04:33.093Z,74.76
2022-11-15T14:09:38.464Z,75.55
2022-11-15T14:14:47.774Z,76.41
2022-11-15T14:19:53.271Z,76.74
2022-11-15T14:25:16.431Z,75.57
2022-11-15T14:30:20.140Z,76.18
2022-11-15T14:35:25.771Z,76.19
2022-11-15T14:40:29.359Z,75.59
2022-11-15T14:45:33.116Z,76.66
2022-11-15T14:50:38.579Z,76.27
2022-11-15T14:55:42.306Z,76.43
2022-11-15T15:00:46.101Z,76.11
2022-11-15T15:05:51.257Z,76.16
2022-11-15T15:10:54.804Z,75.11
2022-11-15T15:15:58.352Z,74.36
2022-11-15T15:21:03.708Z,74.08
2022-11-15T15:26:07.332Z,73.28
2022-11-15T15:31:11.414Z,72.53
2022-11-15T15:36:19.006Z,71.26
2022-11-15T15:41:22.531Z,70.32
2022-11-15T15:46:27.256Z,69.98
2022-11-15T15:51:32.454Z,70.26
2022-11-15T15:56:36.042Z,70.41
2022-11-15T16:01:39.703Z,69.59
2022-11-15T16:06:45.037Z,69.68
2022-11-15T16:11:48.717Z,69.89
2022-11-15T16:16:52.327Z,69.76
2022-11-15T16:21:57.783Z,69.34
2022-11-15T16:27:01.352Z,68.17
2022-11-15T16:32:05.008Z,67.31
2022-11-15T16:37:22.899Z,65.25
2022-11-15T16:42:26.524Z,64.39
2022-11-15T16:47:30.056Z,63.43
2022-11-15T16:52:35.426Z,61.58
2022-11-15T16:57:39.040Z,63.19
2022-11-15T17:02:42.740Z,61.21
2022-11-15T17:07:49.597Z,60.76
2022-11-15T17:12:53.953Z,58.61
2022-11-15T17:17:57.522Z,58.42
2022-11-15T17:23:03.682Z,56.48
2022-11-15T17:28:07.286Z,57.42
2022-11-15T17:33:10.915Z,56.25
2022-11-15T17:38:16.441Z,52.69
2022-11-15T17:43:20.097Z,52.72
2022-11-15T17:48:23.770Z,52.53
2022-11-15T17:53:32.686Z,50.76
2022-11-15T17:58:36.653Z,52.06
2022-11-15T18:03:40.610Z,51.99
2022-11-15T18:08:47.955Z,50.18
2022-11-15T18:13:54.833Z,50.04
2022-11-15T18:18:59.388Z,49.70
2022-11-15T18:24:05.187Z,49.06
2022-11-15T18:29:09.402Z,48.23
2022-11-15T18:34:13.190Z,47.46
2022-11-15T18:39:18.418Z,45.58
2022-11-15T18:44:22.143Z,45.40
2022-11-15T18:49:25.867Z,42.58
2022-11-15T18:54:31.859Z,40.71
2022-11-15T18:59:35.589Z,43.15
2022-11-15T19:04:39.306Z,38.87
2022-11-15T19:09:44.617Z,37.83
2022-11-15T19:14:48.219Z,37.40
2022-11-15T19:19:51.915Z,35.29
2022-11-15T19:24:57.191Z,34.99
2022-11-15T19:30:00.848Z,33.78
2022-11-15T19:35:04.554Z,32.97
2022-11-15T19:40:11.447Z,32.58
2022-11-15T19:45:15.319Z,32.08
2022-11-15T19:50:19.478Z,31.25
2022-11-15T19:55:24.685Z,30.87
2022-11-15T20:00:28.291Z,32.68
2022-11-15T20:05:31.837Z,32.43
2022-11-15T20:10:37.041Z,32.37
2022-11-15T20:15:40.566Z,33.05
2022-11-15T20:20:44.199Z,32.30
2022-11-15T20:25:49.726Z,30.05
2022-11-15T20:30:54.501Z,32.82
2022-11-15T20:35:58.059Z,31.81
2022-11-15T20:41:03.248Z,32.22
2022-11-15T20:46:06.939Z,32.81
2022-11-15T20:51:13.993Z,31.32
2022-11-15T20:56:21.754Z,32.36
2022-11-15T21:01:25.605Z,32.06
2022-11-15T21:06:29.432Z,31.73
2022-11-15T21:11:35.583Z,33.08
2022-11-15T21:16:39.162Z,32.06
2022-11-15T21:21:42.754Z,31.72
2022-11-15T21:26:47.964Z,31.68
2022-11-15T21:31:52.975Z,33.26
2022-11-15T21:36:56.513Z,31.70
2022-11-15T21:42:01.757Z,32.47
2022-11-15T21:47:05.336Z,32.84
2022-11-15T21:52:08.894Z,32.55
2022-11-15T21:57:14.171Z,32.64
2022-11-15T22:02:17.710Z,32.11
2022-11-15T22:07:21.303Z,32.78
2022-11-15T22:12:29.703Z,31.72
2022-11-15T22:17:33.587Z,32.83
2022-11-15T22:22:37.190Z,31.33
2022-11-15T22:27:42.385Z,32.16
2022-11-15T22:32:46.132Z,33.02
2022-11-15T22:37:49.897Z,33.57
2022-11-15T22:42:55.075Z,34.96
2022-11-15T22:48:01.984Z,34.21
2022-11-15T22:53:05.539Z,33.49
2022-11-15T22:58:10.968Z,34.93
2022-11-15T23:03:14.612Z,35.95
2022-11-15T23:08:18.708Z,37.66
2022-11-15T23:13:24.567Z,38.57
2022-11-15T23:18:28.144Z,38.69
2022-11-15T23:23:31.737Z,39.18
2022-11-15T23:28:36.989Z,39.09
2022-11-15T23:33:40.612Z,39.87
2022-11-15T23:38:44.204Z,40.60
2022-11-15T23:43:49.486Z,40.44
2022-11-15T23:48:53.085Z,41.78
2022-11-15T23:53:56.659Z,42.59
2022-11-15T23:59:01.919Z,40.89
